sensor_id;sensor_type;location;lat;lon;timestamp;temperature;humidity
1812;DHT22;904;47.814;11.134;2023-07-20T00:00:41;23.00;57.60
1812;DHT22;904;47.814;11.134;2023-07-20T00:03:11;23.00;57.70
1812;DHT22;904;47.814;11.134;2023-07-20T00:05:43;23.00;57.90
1812;DHT22;904;47.814;11.134;2023-07-20T00:08:11;23.00;58.20
1812;DHT22;904;47.814;11.134;2023-07-20T00:10:39;22.90;58.30
1812;DHT22;904;47.814;11.134;2023-07-20T00:13:07;23.00;58.60
1812;DHT22;904;47.814;11.134;2023-07-20T00:15:34;23.00;58.80
1812;DHT22;904;47.814;11.134;2023-07-20T00:18:03;23.00;58.90
1812;DHT22;904;47.814;11.134;2023-07-20T00:20:31;22.90;58.80
1812;DHT22;904;47.814;11.134;2023-07-20T00:22:58;22.90;58.80
1812;DHT22;904;47.814;11.134;2023-07-20T00:25:26;22.90;58.70
1812;DHT22;904;47.814;11.134;2023-07-20T00:27:53;22.90;58.80
1812;DHT22;904;47.814;11.134;2023-07-20T00:30:20;22.90;58.70
1812;DHT22;904;47.814;11.134;2023-07-20T00:32:47;23.00;58.80
1812;DHT22;904;47.814;11.134;2023-07-20T00:35:18;22.90;59.10
1812;DHT22;904;47.814;11.134;2023-07-20T00:37:48;22.90;59.30
1812;DHT22;904;47.814;11.134;2023-07-20T00:40:15;22.90;58.90
1812;DHT22;904;47.814;11.134;2023-07-20T00:42:45;22.80;59.10
1812;DHT22;904;47.814;11.134;2023-07-20T00:45:12;22.80;58.70
1812;DHT22;904;47.814;11.134;2023-07-20T00:47:43;22.80;58.80
1812;DHT22;904;47.814;11.134;2023-07-20T00:50:11;22.80;59.30
1812;DHT22;904;47.814;11.134;2023-07-20T00:52:43;22.80;59.60
1812;DHT22;904;47.814;11.134;2023-07-20T00:55:11;22.80;59.60
1812;DHT22;904;47.814;11.134;2023-07-20T00:57:42;22.80;60.70
1812;DHT22;904;47.814;11.134;2023-07-20T01:00:11;22.80;61.60
1812;DHT22;904;47.814;11.134;2023-07-20T01:02:39;22.80;61.60
1812;DHT22;904;47.814;11.134;2023-07-20T01:05:06;22.80;61.80
1812;DHT22;904;47.814;11.134;2023-07-20T01:07:38;22.70;61.80
1812;DHT22;904;47.814;11.134;2023-07-20T01:10:12;22.70;61.50
1812;DHT22;904;47.814;11.134;2023-07-20T01:12:46;22.40;62.00
1812;DHT22;904;47.814;11.134;2023-07-20T01:15:15;22.30;62.80
1812;DHT22;904;47.814;11.134;2023-07-20T01:17:43;22.10;64.50
1812;DHT22;904;47.814;11.134;2023-07-20T01:20:14;22.00;65.20
1812;DHT22;904;47.814;11.134;2023-07-20T01:23:00;21.90;66.10
1812;DHT22;904;47.814;11.134;2023-07-20T01:28:48;21.80;67.00
1812;DHT22;904;47.814;11.134;2023-07-20T01:31:21;21.70;68.10
1812;DHT22;904;47.814;11.134;2023-07-20T01:33:50;21.60;68.60
1812;DHT22;904;47.814;11.134;2023-07-20T01:36:19;21.50;68.90
1812;DHT22;904;47.814;11.134;2023-07-20T01:38:47;21.50;69.20
1812;DHT22;904;47.814;11.134;2023-07-20T01:41:15;21.60;69.30
1812;DHT22;904;47.814;11.134;2023-07-20T01:43:44;21.50;69.60
1812;DHT22;904;47.814;11.134;2023-07-20T01:46:15;21.50;69.60
1812;DHT22;904;47.814;11.134;2023-07-20T01:48:44;21.50;69.80
1812;DHT22;904;47.814;11.134;2023-07-20T01:51:13;21.40;69.60
1812;DHT22;904;47.814;11.134;2023-07-20T01:53:45;21.40;70.30
1812;DHT22;904;47.814;11.134;2023-07-20T01:56:12;21.50;70.70
1812;DHT22;904;47.814;11.134;2023-07-20T01:58:44;21.60;71.30
1812;DHT22;904;47.814;11.134;2023-07-20T02:01:11;21.60;71.00
1812;DHT22;904;47.814;11.134;2023-07-20T02:03:38;21.60;69.60
1812;DHT22;904;47.814;11.134;2023-07-20T02:06:07;21.70;68.80
1812;DHT22;904;47.814;11.134;2023-07-20T02:08:35;21.70;69.40
1812;DHT22;904;47.814;11.134;2023-07-20T02:11:07;21.80;69.60
1812;DHT22;904;47.814;11.134;2023-07-20T02:13:35;21.90;69.90
1812;DHT22;904;47.814;11.134;2023-07-20T02:16:02;21.80;70.40
1812;DHT22;904;47.814;11.134;2023-07-20T02:18:30;21.90;70.90
1812;DHT22;904;47.814;11.134;2023-07-20T02:20:58;21.90;71.10
1812;DHT22;904;47.814;11.134;2023-07-20T02:23:27;21.90;71.30
1812;DHT22;904;47.814;11.134;2023-07-20T02:25:56;21.90;71.60
1812;DHT22;904;47.814;11.134;2023-07-20T02:28:23;21.90;71.90
1812;DHT22;904;47.814;11.134;2023-07-20T02:30:50;21.90;71.60
1812;DHT22;904;47.814;11.134;2023-07-20T02:33:19;21.90;71.50
1812;DHT22;904;47.814;11.134;2023-07-20T02:35:52;21.90;71.70
1812;DHT22;904;47.814;11.134;2023-07-20T02:38:19;21.90;71.70
1812;DHT22;904;47.814;11.134;2023-07-20T02:40:47;21.80;72.20
1812;DHT22;904;47.814;11.134;2023-07-20T02:43:15;21.90;72.80
1812;DHT22;904;47.814;11.134;2023-07-20T02:45:47;21.90;72.80
1812;DHT22;904;47.814;11.134;2023-07-20T02:48:16;21.90;73.30
1812;DHT22;904;47.814;11.134;2023-07-20T02:50:46;21.90;73.90
1812;DHT22;904;47.814;11.134;2023-07-20T02:53:15;21.90;74.00
1812;DHT22;904;47.814;11.134;2023-07-20T02:55:43;21.90;74.30
1812;DHT22;904;47.814;11.134;2023-07-20T02:58:11;21.90;75.20
1812;DHT22;904;47.814;11.134;2023-07-20T03:00:38;21.90;75.90
1812;DHT22;904;47.814;11.134;2023-07-20T03:03:06;21.90;75.60
1812;DHT22;904;47.814;11.134;2023-07-20T03:05:35;21.90;75.40
1812;DHT22;904;47.814;11.134;2023-07-20T03:08:07;21.90;74.30
1812;DHT22;904;47.814;11.134;2023-07-20T03:10:38;21.80;73.00
1812;DHT22;904;47.814;11.134;2023-07-20T03:13:06;21.80;73.80
1812;DHT22;904;47.814;11.134;2023-07-20T03:15:34;21.70;75.40
1812;DHT22;904;47.814;11.134;2023-07-20T03:18:01;21.70;76.30
1812;DHT22;904;47.814;11.134;2023-07-20T03:20:30;21.70;76.00
1812;DHT22;904;47.814;11.134;2023-07-20T03:22:58;21.70;75.60
1812;DHT22;904;47.814;11.134;2023-07-20T03:25:30;21.70;74.90
1812;DHT22;904;47.814;11.134;2023-07-20T03:28:02;21.70;74.10
1812;DHT22;904;47.814;11.134;2023-07-20T03:30:36;21.60;73.00
1812;DHT22;904;47.814;11.134;2023-07-20T03:33:08;21.60;72.90
1812;DHT22;904;47.814;11.134;2023-07-20T03:35:35;21.50;72.60
1812;DHT22;904;47.814;11.134;2023-07-20T03:38:03;21.50;73.00
1812;DHT22;904;47.814;11.134;2023-07-20T03:40:35;21.50;72.50
1812;DHT22;904;47.814;11.134;2023-07-20T03:43:04;21.40;72.80
1812;DHT22;904;47.814;11.134;2023-07-20T03:45:33;21.30;72.20
1812;DHT22;904;47.814;11.134;2023-07-20T03:48:02;21.30;73.00
1812;DHT22;904;47.814;11.134;2023-07-20T03:50:29;21.30;73.00
1812;DHT22;904;47.814;11.134;2023-07-20T03:52:56;21.30;73.30
1812;DHT22;904;47.814;11.134;2023-07-20T03:55:23;21.30;74.20
1812;DHT22;904;47.814;11.134;2023-07-20T03:57:50;21.20;74.50
1812;DHT22;904;47.814;11.134;2023-07-20T04:00:19;21.20;74.10
1812;DHT22;904;47.814;11.134;2023-07-20T04:02:46;21.20;74.50
1812;DHT22;904;47.814;11.134;2023-07-20T04:05:15;21.20;74.80
1812;DHT22;904;47.814;11.134;2023-07-20T04:07:42;21.10;74.50
1812;DHT22;904;47.814;11.134;2023-07-20T04:10:09;21.10;73.90
1812;DHT22;904;47.814;11.134;2023-07-20T04:12:37;21.10;74.00
1812;DHT22;904;47.814;11.134;2023-07-20T04:15:10;21.10;74.50
1812;DHT22;904;47.814;11.134;2023-07-20T04:17:37;21.00;73.90
1812;DHT22;904;47.814;11.134;2023-07-20T04:20:05;21.00;74.60
1812;DHT22;904;47.814;11.134;2023-07-20T04:22:34;21.00;75.90
1812;DHT22;904;47.814;11.134;2023-07-20T04:25:01;20.90;76.40
1812;DHT22;904;47.814;11.134;2023-07-20T04:27:28;20.80;76.80
1812;DHT22;904;47.814;11.134;2023-07-20T04:30:00;20.70;77.20
1812;DHT22;904;47.814;11.134;2023-07-20T04:32:27;20.70;78.10
1812;DHT22;904;47.814;11.134;2023-07-20T04:34:54;20.70;79.40
1812;DHT22;904;47.814;11.134;2023-07-20T04:37:21;20.70;80.10
1812;DHT22;904;47.814;11.134;2023-07-20T04:39:49;20.70;79.70
1812;DHT22;904;47.814;11.134;2023-07-20T04:42:16;20.60;79.70
1812;DHT22;904;47.814;11.134;2023-07-20T04:44:48;20.60;80.10
1812;DHT22;904;47.814;11.134;2023-07-20T04:47:15;20.50;81.20
1812;DHT22;904;47.814;11.134;2023-07-20T04:49:42;20.50;81.50
1812;DHT22;904;47.814;11.134;2023-07-20T04:52:09;20.40;80.30
1812;DHT22;904;47.814;11.134;2023-07-20T04:54:41;20.40;80.90
1812;DHT22;904;47.814;11.134;2023-07-20T04:57:11;20.40;81.50
1812;DHT22;904;47.814;11.134;2023-07-20T04:59:38;20.40;81.60
1812;DHT22;904;47.814;11.134;2023-07-20T05:02:05;20.30;82.40
1812;DHT22;904;47.814;11.134;2023-07-20T05:04:32;20.20;83.20
1812;DHT22;904;47.814;11.134;2023-07-20T05:07:01;20.20;83.00
1812;DHT22;904;47.814;11.134;2023-07-20T05:09:27;20.10;82.30
1812;DHT22;904;47.814;11.134;2023-07-20T05:11:54;20.00;83.30
1812;DHT22;904;47.814;11.134;2023-07-20T05:14:23;19.60;85.50
1812;DHT22;904;47.814;11.134;2023-07-20T05:16:50;19.50;87.30
1812;DHT22;904;47.814;11.134;2023-07-20T05:19:17;19.30;88.40
1812;DHT22;904;47.814;11.134;2023-07-20T05:21:44;19.00;90.20
1812;DHT22;904;47.814;11.134;2023-07-20T05:24:11;19.10;90.50
1812;DHT22;904;47.814;11.134;2023-07-20T05:26:38;19.20;90.60
1812;DHT22;904;47.814;11.134;2023-07-20T05:29:05;19.30;90.70
1812;DHT22;904;47.814;11.134;2023-07-20T05:31:33;19.30;91.00
1812;DHT22;904;47.814;11.134;2023-07-20T05:34:00;19.30;91.20
1812;DHT22;904;47.814;11.134;2023-07-20T05:36:27;19.00;91.60
1812;DHT22;904;47.814;11.134;2023-07-20T05:38:56;19.00;92.10
1812;DHT22;904;47.814;11.134;2023-07-20T05:41:23;18.90;92.80
1812;DHT22;904;47.814;11.134;2023-07-20T05:43:50;18.90;93.30
1812;DHT22;904;47.814;11.134;2023-07-20T05:46:18;19.00;93.50
1812;DHT22;904;47.814;11.134;2023-07-20T05:48:46;19.10;94.10
1812;DHT22;904;47.814;11.134;2023-07-20T05:51:13;19.20;94.40
1812;DHT22;904;47.814;11.134;2023-07-20T05:53:42;19.30;94.80
1812;DHT22;904;47.814;11.134;2023-07-20T05:56:09;19.40;95.00
1812;DHT22;904;47.814;11.134;2023-07-20T05:58:41;19.40;94.00
1812;DHT22;904;47.814;11.134;2023-07-20T06:01:11;19.40;93.90
1812;DHT22;904;47.814;11.134;2023-07-20T06:03:38;19.50;94.10
1812;DHT22;904;47.814;11.134;2023-07-20T06:06:06;19.60;94.40
1812;DHT22;904;47.814;11.134;2023-07-20T06:08:34;19.70;94.50
1812;DHT22;904;47.814;11.134;2023-07-20T06:11:02;19.80;94.50
1812;DHT22;904;47.814;11.134;2023-07-20T06:13:29;19.90;93.40
1812;DHT22;904;47.814;11.134;2023-07-20T06:15:56;19.90;92.90
1812;DHT22;904;47.814;11.134;2023-07-20T06:18:25;20.00;91.80
1812;DHT22;904;47.814;11.134;2023-07-20T06:20:57;20.00;92.00
1812;DHT22;904;47.814;11.134;2023-07-20T06:23:26;19.90;91.70
1812;DHT22;904;47.814;11.134;2023-07-20T06:25:52;19.80;91.80
1812;DHT22;904;47.814;11.134;2023-07-20T06:28:20;19.70;91.90
1812;DHT22;904;47.814;11.134;2023-07-20T06:30:49;19.60;92.50
1812;DHT22;904;47.814;11.134;2023-07-20T06:33:19;19.70;93.60
1812;DHT22;904;47.814;11.134;2023-07-20T06:35:46;19.90;93.60
1812;DHT22;904;47.814;11.134;2023-07-20T06:38:13;20.00;93.30
1812;DHT22;904;47.814;11.134;2023-07-20T06:40:41;20.00;93.20
1812;DHT22;904;47.814;11.134;2023-07-20T06:43:10;20.10;92.80
1812;DHT22;904;47.814;11.134;2023-07-20T06:45:41;20.20;93.00
1812;DHT22;904;47.814;11.134;2023-07-20T06:48:09;20.20;93.40
1812;DHT22;904;47.814;11.134;2023-07-20T06:50:36;20.30;92.70
1812;DHT22;904;47.814;11.134;2023-07-20T06:53:03;20.30;92.10
1812;DHT22;904;47.814;11.134;2023-07-20T06:55:34;20.40;91.30
1812;DHT22;904;47.814;11.134;2023-07-20T06:58:02;20.50;91.00
1812;DHT22;904;47.814;11.134;2023-07-20T07:00:34;20.50;91.30
1812;DHT22;904;47.814;11.134;2023-07-20T07:03:03;20.70;91.90
1812;DHT22;904;47.814;11.134;2023-07-20T07:05:30;20.80;91.10
1812;DHT22;904;47.814;11.134;2023-07-20T07:08:02;20.80;90.60
1812;DHT22;904;47.814;11.134;2023-07-20T07:10:30;20.90;90.10
1812;DHT22;904;47.814;11.134;2023-07-20T07:13:00;20.90;89.90
1812;DHT22;904;47.814;11.134;2023-07-20T07:15:38;21.00;88.70
1812;DHT22;904;47.814;11.134;2023-07-20T07:18:05;21.10;89.20
1812;DHT22;904;47.814;11.134;2023-07-20T07:20:32;21.20;88.60
1812;DHT22;904;47.814;11.134;2023-07-20T07:23:01;21.30;86.70
1812;DHT22;904;47.814;11.134;2023-07-20T07:25:30;21.40;86.50
1812;DHT22;904;47.814;11.134;2023-07-20T07:27:59;21.40;83.60
1812;DHT22;904;47.814;11.134;2023-07-20T07:30:26;21.40;77.30
1812;DHT22;904;47.814;11.134;2023-07-20T07:32:55;21.40;78.30
1812;DHT22;904;47.814;11.134;2023-07-20T07:35:24;21.50;76.00
1812;DHT22;904;47.814;11.134;2023-07-20T07:37:56;21.60;73.60
1812;DHT22;904;47.814;11.134;2023-07-20T07:40:23;21.40;73.70
1812;DHT22;904;47.814;11.134;2023-07-20T07:42:52;21.40;74.60
1812;DHT22;904;47.814;11.134;2023-07-20T07:45:21;21.50;75.40
1812;DHT22;904;47.814;11.134;2023-07-20T07:47:48;21.60;75.50
1812;DHT22;904;47.814;11.134;2023-07-20T07:50:18;21.70;78.00
1812;DHT22;904;47.814;11.134;2023-07-20T07:52:46;21.70;78.40
1812;DHT22;904;47.814;11.134;2023-07-20T07:55:16;21.80;78.30
1812;DHT22;904;47.814;11.134;2023-07-20T07:57:48;21.80;77.20
1812;DHT22;904;47.814;11.134;2023-07-20T08:00:16;21.80;77.30
1812;DHT22;904;47.814;11.134;2023-07-20T08:02:46;21.80;77.20
1812;DHT22;904;47.814;11.134;2023-07-20T08:05:15;21.90;78.30
1812;DHT22;904;47.814;11.134;2023-07-20T08:07:42;22.00;77.70
1812;DHT22;904;47.814;11.134;2023-07-20T08:10:14;22.20;74.60
1812;DHT22;904;47.814;11.134;2023-07-20T08:12:41;22.10;73.80
1812;DHT22;904;47.814;11.134;2023-07-20T08:15:11;22.00;74.40
1812;DHT22;904;47.814;11.134;2023-07-20T08:17:41;22.00;73.50
1812;DHT22;904;47.814;11.134;2023-07-20T08:20:10;21.80;73.80
1812;DHT22;904;47.814;11.134;2023-07-20T08:22:41;21.90;74.70
1812;DHT22;904;47.814;11.134;2023-07-20T08:25:09;22.00;76.00
1812;DHT22;904;47.814;11.134;2023-07-20T08:27:36;22.10;75.20
1812;DHT22;904;47.814;11.134;2023-07-20T08:30:07;22.10;73.10
1812;DHT22;904;47.814;11.134;2023-07-20T08:32:34;22.20;72.70
1812;DHT22;904;47.814;11.134;2023-07-20T08:35:01;22.30;69.70
1812;DHT22;904;47.814;11.134;2023-07-20T08:37:33;22.30;63.50
1812;DHT22;904;47.814;11.134;2023-07-20T08:40:02;22.30;64.50
1812;DHT22;904;47.814;11.134;2023-07-20T08:42:36;22.30;64.60
1812;DHT22;904;47.814;11.134;2023-07-20T08:45:06;22.30;64.50
1812;DHT22;904;47.814;11.134;2023-07-20T08:47:41;22.30;65.70
1812;DHT22;904;47.814;11.134;2023-07-20T08:50:11;22.30;65.60
1812;DHT22;904;47.814;11.134;2023-07-20T08:52:41;22.40;64.50
1812;DHT22;904;47.814;11.134;2023-07-20T08:55:10;22.40;63.20
1812;DHT22;904;47.814;11.134;2023-07-20T08:57:40;22.50;64.70
1812;DHT22;904;47.814;11.134;2023-07-20T09:00:09;22.50;63.60
1812;DHT22;904;47.814;11.134;2023-07-20T09:02:49;22.50;64.00
1812;DHT22;904;47.814;11.134;2023-07-20T09:05:22;22.60;66.20
1812;DHT22;904;47.814;11.134;2023-07-20T09:07:51;22.60;60.20
1812;DHT22;904;47.814;11.134;2023-07-20T09:10:28;22.60;61.30
1812;DHT22;904;47.814;11.134;2023-07-20T09:12:55;22.80;61.00
1812;DHT22;904;47.814;11.134;2023-07-20T09:15:23;22.90;61.90
1812;DHT22;904;47.814;11.134;2023-07-20T09:17:51;23.00;62.80
1812;DHT22;904;47.814;11.134;2023-07-20T09:20:24;23.10;64.30
1812;DHT22;904;47.814;11.134;2023-07-20T09:22:53;23.20;61.80
1812;DHT22;904;47.814;11.134;2023-07-20T09:25:20;23.30;62.30
1812;DHT22;904;47.814;11.134;2023-07-20T09:27:49;23.40;62.70
1812;DHT22;904;47.814;11.134;2023-07-20T09:30:19;23.50;64.80
1812;DHT22;904;47.814;11.134;2023-07-20T09:32:52;23.70;60.70
1812;DHT22;904;47.814;11.134;2023-07-20T09:35:27;23.70;59.00
1812;DHT22;904;47.814;11.134;2023-07-20T09:37:58;23.80;60.30
1812;DHT22;904;47.814;11.134;2023-07-20T09:40:40;23.90;60.70
1812;DHT22;904;47.814;11.134;2023-07-20T09:43:15;24.10;58.90
1812;DHT22;904;47.814;11.134;2023-07-20T09:45:43;24.10;57.90
1812;DHT22;904;47.814;11.134;2023-07-20T09:48:11;24.10;58.00
1812;DHT22;904;47.814;11.134;2023-07-20T09:50:45;24.20;57.60
1812;DHT22;904;47.814;11.134;2023-07-20T09:53:20;24.30;58.70
1812;DHT22;904;47.814;11.134;2023-07-20T09:55:53;24.50;58.70
1812;DHT22;904;47.814;11.134;2023-07-20T09:58:22;24.70;59.20
1812;DHT22;904;47.814;11.134;2023-07-20T10:00:51;24.80;56.00
1812;DHT22;904;47.814;11.134;2023-07-20T10:03:26;24.80;55.00
1812;DHT22;904;47.814;11.134;2023-07-20T10:05:58;24.80;55.50
1812;DHT22;904;47.814;11.134;2023-07-20T10:08:29;24.80;54.10
1812;DHT22;904;47.814;11.134;2023-07-20T10:11:00;24.80;54.60
1812;DHT22;904;47.814;11.134;2023-07-20T10:13:32;24.90;55.50
1812;DHT22;904;47.814;11.134;2023-07-20T10:16:07;24.90;56.60
1812;DHT22;904;47.814;11.134;2023-07-20T10:18:50;25.10;56.30
1812;DHT22;904;47.814;11.134;2023-07-20T10:21:20;25.20;54.00
1812;DHT22;904;47.814;11.134;2023-07-20T10:23:49;25.30;55.20
1812;DHT22;904;47.814;11.134;2023-07-20T10:26:16;25.60;55.70
1812;DHT22;904;47.814;11.134;2023-07-20T10:28:45;25.80;55.60
1812;DHT22;904;47.814;11.134;2023-07-20T10:31:17;25.90;54.40
1812;DHT22;904;47.814;11.134;2023-07-20T10:33:45;26.10;54.40
1812;DHT22;904;47.814;11.134;2023-07-20T10:36:12;26.10;53.10
1812;DHT22;904;47.814;11.134;2023-07-20T10:38:40;26.10;53.10
1812;DHT22;904;47.814;11.134;2023-07-20T10:41:18;26.20;54.00
1812;DHT22;904;47.814;11.134;2023-07-20T10:43:49;26.20;51.80
1812;DHT22;904;47.814;11.134;2023-07-20T10:46:41;26.30;52.50
1812;DHT22;904;47.814;11.134;2023-07-20T10:49:14;26.40;51.80
1812;DHT22;904;47.814;11.134;2023-07-20T10:51:43;26.50;52.80
1812;DHT22;904;47.814;11.134;2023-07-20T10:54:34;26.60;51.60
1812;DHT22;904;47.814;11.134;2023-07-20T10:57:30;26.60;51.80
1812;DHT22;904;47.814;11.134;2023-07-20T11:00:14;26.70;52.10
1812;DHT22;904;47.814;11.134;2023-07-20T11:02:45;26.80;51.40
1812;DHT22;904;47.814;11.134;2023-07-20T11:05:34;26.80;50.50
1812;DHT22;904;47.814;11.134;2023-07-20T11:08:10;27.00;50.20
1812;DHT22;904;47.814;11.134;2023-07-20T11:10:37;27.00;49.50
1812;DHT22;904;47.814;11.134;2023-07-20T11:13:17;27.20;50.50
1812;DHT22;904;47.814;11.134;2023-07-20T11:16:03;27.20;49.00
1812;DHT22;904;47.814;11.134;2023-07-20T11:18:33;27.30;49.00
1812;DHT22;904;47.814;11.134;2023-07-20T11:21:02;27.40;49.00
1812;DHT22;904;47.814;11.134;2023-07-20T11:23:31;27.50;49.60
1812;DHT22;904;47.814;11.134;2023-07-20T11:26:04;27.70;49.20
1812;DHT22;904;47.814;11.134;2023-07-20T11:28:34;27.80;48.10
1812;DHT22;904;47.814;11.134;2023-07-20T11:31:02;27.80;47.00
1812;DHT22;904;47.814;11.134;2023-07-20T11:33:29;27.80;47.10
1812;DHT22;904;47.814;11.134;2023-07-20T11:35:56;28.00;47.40
1812;DHT22;904;47.814;11.134;2023-07-20T11:38:25;28.10;46.80
1812;DHT22;904;47.814;11.134;2023-07-20T11:40:52;28.20;45.30
1812;DHT22;904;47.814;11.134;2023-07-20T11:43:30;28.10;45.60
1812;DHT22;904;47.814;11.134;2023-07-20T11:45:57;28.10;44.50
1812;DHT22;904;47.814;11.134;2023-07-20T11:48:26;28.20;45.70
1812;DHT22;904;47.814;11.134;2023-07-20T11:50:57;28.30;44.90
1812;DHT22;904;47.814;11.134;2023-07-20T11:53:25;28.50;44.10
1812;DHT22;904;47.814;11.134;2023-07-20T11:55:53;28.50;44.90
1812;DHT22;904;47.814;11.134;2023-07-20T11:58:23;28.50;44.50
1812;DHT22;904;47.814;11.134;2023-07-20T12:00:50;28.50;44.90
1812;DHT22;904;47.814;11.134;2023-07-20T12:03:18;28.50;44.10
1812;DHT22;904;47.814;11.134;2023-07-20T12:05:46;28.40;42.60
1812;DHT22;904;47.814;11.134;2023-07-20T12:08:16;28.40;43.20
1812;DHT22;904;47.814;11.134;2023-07-20T12:10:43;28.40;43.70
1812;DHT22;904;47.814;11.134;2023-07-20T12:13:11;28.40;44.40
1812;DHT22;904;47.814;11.134;2023-07-20T12:15:43;28.40;43.60
1812;DHT22;904;47.814;11.134;2023-07-20T12:18:12;28.50;44.70
1812;DHT22;904;47.814;11.134;2023-07-20T12:20:39;28.60;44.80
1812;DHT22;904;47.814;11.134;2023-07-20T12:23:11;28.60;43.40
1812;DHT22;904;47.814;11.134;2023-07-20T12:25:41;28.40;42.10
1812;DHT22;904;47.814;11.134;2023-07-20T12:28:14;28.40;43.30
1812;DHT22;904;47.814;11.134;2023-07-20T12:30:45;28.60;44.90
1812;DHT22;904;47.814;11.134;2023-07-20T12:33:18;28.70;43.80
1812;DHT22;904;47.814;11.134;2023-07-20T12:35:45;28.70;42.10
1812;DHT22;904;47.814;11.134;2023-07-20T12:38:14;28.80;43.10
1812;DHT22;904;47.814;11.134;2023-07-20T12:40:41;28.70;40.80
1812;DHT22;904;47.814;11.134;2023-07-20T12:43:09;28.70;42.80
1812;DHT22;904;47.814;11.134;2023-07-20T12:45:38;28.80;42.30
1812;DHT22;904;47.814;11.134;2023-07-20T12:48:06;28.80;42.30
1812;DHT22;904;47.814;11.134;2023-07-20T12:50:36;28.80;41.30
1812;DHT22;904;47.814;11.134;2023-07-20T12:53:05;28.70;40.20
1812;DHT22;904;47.814;11.134;2023-07-20T12:55:33;28.70;41.30
1812;DHT22;904;47.814;11.134;2023-07-20T12:58:05;28.70;41.80
1812;DHT22;904;47.814;11.134;2023-07-20T13:00:36;28.70;42.50
1812;DHT22;904;47.814;11.134;2023-07-20T13:03:03;28.60;42.30
1812;DHT22;904;47.814;11.134;2023-07-20T13:05:37;28.60;41.10
1812;DHT22;904;47.814;11.134;2023-07-20T13:08:05;28.50;41.60
1812;DHT22;904;47.814;11.134;2023-07-20T13:10:36;28.50;41.20
1812;DHT22;904;47.814;11.134;2023-07-20T13:13:09;28.50;40.90
1812;DHT22;904;47.814;11.134;2023-07-20T13:15:45;28.50;41.00
1812;DHT22;904;47.814;11.134;2023-07-20T13:18:13;28.50;41.00
1812;DHT22;904;47.814;11.134;2023-07-20T13:20:45;28.50;41.10
1812;DHT22;904;47.814;11.134;2023-07-20T13:23:17;28.50;40.50
1812;DHT22;904;47.814;11.134;2023-07-20T13:25:46;28.40;40.50
1812;DHT22;904;47.814;11.134;2023-07-20T13:28:15;28.40;41.00
1812;DHT22;904;47.814;11.134;2023-07-20T13:30:42;28.40;40.70
1812;DHT22;904;47.814;11.134;2023-07-20T13:33:10;28.30;40.60
1812;DHT22;904;47.814;11.134;2023-07-20T13:35:39;28.30;40.90
1812;DHT22;904;47.814;11.134;2023-07-20T13:38:09;28.20;41.60
1812;DHT22;904;47.814;11.134;2023-07-20T13:40:41;28.20;41.50
1812;DHT22;904;47.814;11.134;2023-07-20T13:43:10;28.30;42.20
1812;DHT22;904;47.814;11.134;2023-07-20T13:45:42;28.30;41.90
1812;DHT22;904;47.814;11.134;2023-07-20T13:48:09;28.20;40.10
1812;DHT22;904;47.814;11.134;2023-07-20T13:50:36;28.10;41.00
1812;DHT22;904;47.814;11.134;2023-07-20T13:53:09;28.00;41.00
1812;DHT22;904;47.814;11.134;2023-07-20T13:55:36;27.80;40.80
1812;DHT22;904;47.814;11.134;2023-07-20T13:58:05;27.80;42.00
1812;DHT22;904;47.814;11.134;2023-07-20T14:00:34;27.70;42.80
1812;DHT22;904;47.814;11.134;2023-07-20T14:03:03;27.70;42.90
1812;DHT22;904;47.814;11.134;2023-07-20T14:05:30;27.70;43.00
1812;DHT22;904;47.814;11.134;2023-07-20T14:07:58;27.70;42.60
1812;DHT22;904;47.814;11.134;2023-07-20T14:10:27;27.70;42.30
1812;DHT22;904;47.814;11.134;2023-07-20T14:12:59;27.70;42.10
1812;DHT22;904;47.814;11.134;2023-07-20T14:15:31;27.60;42.10
1812;DHT22;904;47.814;11.134;2023-07-20T14:18:01;27.60;43.00
1812;DHT22;904;47.814;11.134;2023-07-20T14:20:30;27.60;42.60
1812;DHT22;904;47.814;11.134;2023-07-20T14:23:01;27.70;43.20
1812;DHT22;904;47.814;11.134;2023-07-20T14:25:30;27.70;42.40
1812;DHT22;904;47.814;11.134;2023-07-20T14:27:58;27.80;41.80
1812;DHT22;904;47.814;11.134;2023-07-20T14:30:25;27.70;40.40
1812;DHT22;904;47.814;11.134;2023-07-20T14:32:53;27.70;40.70
1812;DHT22;904;47.814;11.134;2023-07-20T14:35:26;27.60;40.50
1812;DHT22;904;47.814;11.134;2023-07-20T14:37:53;27.70;41.20
1812;DHT22;904;47.814;11.134;2023-07-20T14:40:22;27.70;41.50
1812;DHT22;904;47.814;11.134;2023-07-20T14:42:50;27.70;41.50
1812;DHT22;904;47.814;11.134;2023-07-20T14:45:19;27.60;41.50
1812;DHT22;904;47.814;11.134;2023-07-20T14:47:48;27.60;42.50
1812;DHT22;904;47.814;11.134;2023-07-20T14:50:20;27.60;42.10
1812;DHT22;904;47.814;11.134;2023-07-20T14:52:48;27.60;42.40
1812;DHT22;904;47.814;11.134;2023-07-20T14:55:16;27.50;43.20
1812;DHT22;904;47.814;11.134;2023-07-20T14:57:45;27.50;43.50
1812;DHT22;904;47.814;11.134;2023-07-20T15:00:14;27.40;43.50
1812;DHT22;904;47.814;11.134;2023-07-20T15:02:42;27.40;43.10
1812;DHT22;904;47.814;11.134;2023-07-20T15:05:20;27.30;42.20
1812;DHT22;904;47.814;11.134;2023-07-20T15:07:49;27.20;43.20
1812;DHT22;904;47.814;11.134;2023-07-20T15:10:16;27.20;42.90
1812;DHT22;904;47.814;11.134;2023-07-20T15:12:48;27.10;42.30
1812;DHT22;904;47.814;11.134;2023-07-20T15:15:19;27.00;43.60
1812;DHT22;904;47.814;11.134;2023-07-20T15:17:51;26.80;44.10
1812;DHT22;904;47.814;11.134;2023-07-20T15:20:21;26.70;43.90
1812;DHT22;904;47.814;11.134;2023-07-20T15:22:51;26.60;43.20
1812;DHT22;904;47.814;11.134;2023-07-20T15:25:20;26.50;44.20
1812;DHT22;904;47.814;11.134;2023-07-20T15:27:52;26.40;44.90
1812;DHT22;904;47.814;11.134;2023-07-20T15:30:21;26.30;44.30
1812;DHT22;904;47.814;11.134;2023-07-20T15:32:53;26.20;44.00
1812;DHT22;904;47.814;11.134;2023-07-20T15:35:21;26.10;44.80
1812;DHT22;904;47.814;11.134;2023-07-20T15:37:54;26.00;45.00
1812;DHT22;904;47.814;11.134;2023-07-20T15:40:22;25.90;45.80
1812;DHT22;904;47.814;11.134;2023-07-20T15:42:50;25.90;46.30
1812;DHT22;904;47.814;11.134;2023-07-20T15:45:21;25.90;47.00
1812;DHT22;904;47.814;11.134;2023-07-20T15:47:49;25.90;46.20
1812;DHT22;904;47.814;11.134;2023-07-20T15:50:20;25.90;45.70
1812;DHT22;904;47.814;11.134;2023-07-20T15:52:49;25.90;45.70
1812;DHT22;904;47.814;11.134;2023-07-20T15:55:17;25.90;46.00
1812;DHT22;904;47.814;11.134;2023-07-20T15:57:46;25.90;47.30
1812;DHT22;904;47.814;11.134;2023-07-20T16:00:13;25.90;45.80
1812;DHT22;904;47.814;11.134;2023-07-20T16:02:46;25.80;46.60
1812;DHT22;904;47.814;11.134;2023-07-20T16:05:18;25.80;47.30
1812;DHT22;904;47.814;11.134;2023-07-20T16:07:45;25.80;47.90
1812;DHT22;904;47.814;11.134;2023-07-20T16:10:13;25.80;47.80
1812;DHT22;904;47.814;11.134;2023-07-20T16:12:41;25.70;47.50
1812;DHT22;904;47.814;11.134;2023-07-20T16:15:14;25.70;47.90
1812;DHT22;904;47.814;11.134;2023-07-20T16:17:43;25.70;47.50
1812;DHT22;904;47.814;11.134;2023-07-20T16:20:15;25.70;47.30